createdAt,value
2019-03-06T00:02:18.094Z,99920.28
2019-03-06T00:04:48.209Z,99918.48
2019-03-06T00:07:18.643Z,99914.68
2019-03-06T00:09:48.705Z,99909.37
2019-03-06T00:12:18.689Z,99915.98
2019-03-06T00:14:48.531Z,99914.59
2019-03-06T00:17:18.132Z,99915.70
2019-03-06T00:19:47.644Z,99916.05
2019-03-06T00:22:16.429Z,99914.09
2019-03-06T00:24:45.328Z,99908.72
2019-03-06T00:27:14.241Z,99905.55
2019-03-06T00:29:45.563Z,99905.16
2019-03-06T00:32:14.441Z,99909.61
2019-03-06T00:34:44.184Z,99903.11
2019-03-06T00:37:13.522Z,99901.67
2019-03-06T00:40:05.031Z,99904.15
2019-03-06T00:42:36.584Z,99905.64
2019-03-06T00:45:08.290Z,99905.67
2019-03-06T00:47:37.589Z,99900.11
2019-03-06T00:50:07.055Z,99898.84
2019-03-06T00:52:36.351Z,99903.75
2019-03-06T00:55:05.861Z,99900.11
2019-03-06T00:57:35.235Z,99897.31
2019-03-06T01:00:05.251Z,99894.88
2019-03-06T01:02:34.033Z,99899.43
2019-03-06T01:05:03.213Z,99892.56
2019-03-06T01:07:32.374Z,99888.17
2019-03-06T01:10:01.179Z,99898.53
2019-03-06T01:12:30.414Z,99902.87
2019-03-06T01:14:59.536Z,99899.09
2019-03-06T01:17:28.389Z,99896.31
2019-03-06T01:19:57.618Z,99896.28
2019-03-06T01:22:27.390Z,99900.20
2019-03-06T01:24:56.724Z,99906.95
2019-03-06T01:27:25.927Z,99906.34
2019-03-06T01:29:54.758Z,99905.98
2019-03-06T01:32:23.715Z,99902.20
2019-03-06T01:35:10.827Z,99906.93
2019-03-06T01:37:55.048Z,99898.75
2019-03-06T01:40:35.703Z,99895.22
2019-03-06T01:43:11.127Z,99899.29
2019-03-06T01:45:40.031Z,99893.89
2019-03-06T01:48:08.886Z,99897.62
2019-03-06T01:50:38.047Z,99891.89
2019-03-06T01:53:07.184Z,99887.31
2019-03-06T01:55:36.371Z,99885.70
2019-03-06T01:58:05.398Z,99880.08
2019-03-06T02:00:34.761Z,99875.21
2019-03-06T02:03:03.697Z,99874.25
2019-03-06T02:05:32.582Z,99873.00
2019-03-06T02:08:01.485Z,99877.38
2019-03-06T02:10:31.026Z,99880.03
2019-03-06T02:13:00.210Z,99878.67
2019-03-06T02:15:29.031Z,99875.91
2019-03-06T02:17:57.818Z,99867.56
2019-03-06T02:20:26.795Z,99871.48
2019-03-06T02:22:55.688Z,99871.67
2019-03-06T02:25:24.624Z,99868.22
2019-03-06T02:27:54.217Z,99869.42
2019-03-06T02:30:23.537Z,99875.14
2019-03-06T02:32:52.389Z,99869.52
2019-03-06T02:35:21.522Z,99866.27
2019-03-06T02:37:50.413Z,99860.02
2019-03-06T02:40:19.441Z,99856.90
2019-03-06T02:42:48.222Z,99852.20
2019-03-06T02:45:17.305Z,99848.55
2019-03-06T02:47:46.624Z,99841.78
2019-03-06T02:50:16.137Z,99842.67
2019-03-06T02:52:45.064Z,99838.54
2019-03-06T02:55:14.240Z,99832.53
2019-03-06T02:57:48.680Z,99834.70
2019-03-06T03:00:38.973Z,99833.27
2019-03-06T03:03:40.987Z,99817.69
2019-03-06T03:06:15.946Z,99818.47
2019-03-06T03:08:44.728Z,99816.26
2019-03-06T03:11:13.514Z,99815.63
2019-03-06T03:13:42.416Z,99797.35
2019-03-06T03:16:11.198Z,99793.45
2019-03-06T03:18:40.277Z,99792.95
2019-03-06T03:21:09.186Z,99790.20
2019-03-06T03:23:38.008Z,99777.05
2019-03-06T03:26:06.782Z,99774.19
2019-03-06T03:28:35.628Z,99770.66
2019-03-06T03:31:04.566Z,99769.58
2019-03-06T03:33:33.369Z,99768.34
2019-03-06T03:36:02.165Z,99768.02
2019-03-06T03:38:30.955Z,99768.81
2019-03-06T03:40:59.744Z,99768.22
2019-03-06T03:43:28.568Z,99767.06
2019-03-06T03:45:57.348Z,99766.81
2019-03-06T03:48:26.150Z,99772.59
2019-03-06T03:50:55.354Z,99765.65
2019-03-06T03:53:24.141Z,99759.50
2019-03-06T03:55:52.928Z,99762.05
2019-03-06T03:58:22.209Z,99756.06
2019-03-06T04:00:51.361Z,99751.84
2019-03-06T04:03:20.259Z,99760.53
2019-03-06T04:05:49.230Z,99766.11
2019-03-06T04:08:18.073Z,99756.70
2019-03-06T04:10:46.863Z,99759.44
2019-03-06T04:13:15.662Z,99749.94
2019-03-06T04:15:45.218Z,99742.64
2019-03-06T04:18:13.997Z,99750.25
2019-03-06T04:20:42.829Z,99740.03
2019-03-06T04:23:12.556Z,99743.38
2019-03-06T04:25:42.531Z,99740.36
2019-03-06T04:28:12.136Z,99730.02
2019-03-06T04:30:42.093Z,99731.56
2019-03-06T04:33:11.971Z,99713.55
2019-03-06T04:35:41.619Z,99713.56
2019-03-06T04:38:11.360Z,99715.25
2019-03-06T04:40:40.945Z,99711.94
2019-03-06T04:43:09.751Z,99712.05
2019-03-06T04:45:38.574Z,99718.11
2019-03-06T04:48:07.777Z,99713.85
2019-03-06T04:50:36.976Z,99712.04
2019-03-06T04:53:06.937Z,99717.90
2019-03-06T04:55:36.723Z,99715.47
2019-03-06T04:58:06.546Z,99707.27
2019-03-06T05:00:36.057Z,99710.32
2019-03-06T05:03:05.798Z,99699.78
2019-03-06T05:05:34.991Z,99704.22
2019-03-06T05:08:05.714Z,99698.05
2019-03-06T05:10:35.925Z,99692.47
2019-03-06T05:13:05.629Z,99704.25
2019-03-06T05:15:35.505Z,99695.41
2019-03-06T05:18:19.520Z,99693.81
2019-03-06T05:20:49.128Z,99692.78
2019-03-06T05:23:18.392Z,99689.34
2019-03-06T05:25:52.253Z,99680.45
2019-03-06T05:28:30.237Z,99687.72
2019-03-06T05:30:59.093Z,99680.23
2019-03-06T05:33:28.806Z,99670.61
2019-03-06T05:36:29.873Z,99663.13
2019-03-06T05:39:08.834Z,99670.92
2019-03-06T05:41:38.001Z,99657.66
2019-03-06T05:44:07.265Z,99667.18
2019-03-06T05:46:38.235Z,99666.25
2019-03-06T05:49:07.262Z,99664.45
2019-03-06T05:51:36.848Z,99659.36
2019-03-06T05:54:06.477Z,99648.13
2019-03-06T05:56:36.839Z,99640.59
2019-03-06T05:59:05.881Z,99639.17
2019-03-06T06:01:35.584Z,99638.84
2019-03-06T06:04:05.251Z,99648.96
2019-03-06T06:06:34.065Z,99639.09
2019-03-06T06:09:04.592Z,99642.76
2019-03-06T06:11:33.396Z,99643.96
2019-03-06T06:14:02.219Z,99634.09
2019-03-06T06:16:31.384Z,99632.97
2019-03-06T06:19:01.782Z,99632.65
2019-03-06T06:21:49.127Z,99635.54
2019-03-06T06:24:22.285Z,99624.41
2019-03-06T06:26:51.905Z,99616.25
2019-03-06T06:29:21.853Z,99613.62
2019-03-06T06:31:51.583Z,99607.06
2019-03-06T06:34:21.142Z,99599.55
2019-03-06T06:36:51.087Z,99598.19
2019-03-06T06:39:21.116Z,99587.39
2019-03-06T06:41:50.993Z,99581.02
2019-03-06T06:44:20.192Z,99586.42
2019-03-06T06:46:49.741Z,99579.34
2019-03-06T06:49:19.728Z,99582.39
2019-03-06T06:52:11.479Z,99576.89
2019-03-06T06:54:52.511Z,99567.56
2019-03-06T06:58:08.093Z,99561.80
2019-03-06T07:01:12.987Z,99548.52
2019-03-06T07:04:34.322Z,99555.08
2019-03-06T07:07:22.528Z,99546.09
2019-03-06T07:10:16.393Z,99545.42
2019-03-06T07:13:17.145Z,99549.28
2019-03-06T07:16:15.125Z,99541.00
2019-03-06T07:19:15.678Z,99539.91
2019-03-06T07:22:03.219Z,99540.64
2019-03-06T07:24:57.742Z,99545.28
2019-03-06T07:27:45.251Z,99531.19
2019-03-06T07:30:24.515Z,99532.88
2019-03-06T07:33:00.374Z,99520.39
2019-03-06T07:36:05.028Z,99522.20
2019-03-06T07:38:34.578Z,99523.75
2019-03-06T07:41:22.001Z,99521.60
2019-03-06T07:44:04.776Z,99519.55
2019-03-06T07:46:44.907Z,99520.97
2019-03-06T07:49:20.178Z,99517.86
2019-03-06T07:52:07.669Z,99517.77
2019-03-06T07:54:46.500Z,99520.33
2019-03-06T07:57:33.188Z,99513.19
2019-03-06T08:00:02.418Z,99519.22
2019-03-06T08:02:41.437Z,99517.83
2019-03-06T08:05:10.630Z,99514.95
2019-03-06T08:07:39.484Z,99519.28
2019-03-06T08:10:13.242Z,99520.02
2019-03-06T08:12:52.061Z,99526.23
2019-03-06T08:15:33.781Z,99524.02
2019-03-06T08:18:31.246Z,99518.55
2019-03-06T08:21:22.535Z,99510.20
2019-03-06T08:23:58.491Z,99509.92
2019-03-06T08:26:27.316Z,99512.78
2019-03-06T08:28:56.331Z,99500.39
2019-03-06T08:31:34.016Z,99504.75
2019-03-06T08:34:03.056Z,99504.42
2019-03-06T08:36:31.835Z,99489.45
2019-03-06T08:39:00.688Z,99481.48
2019-03-06T08:41:29.567Z,99481.27
2019-03-06T08:43:58.427Z,99484.83
2019-03-06T08:46:49.580Z,99480.02
2019-03-06T08:49:43.649Z,99479.84
2019-03-06T08:52:30.587Z,99469.26
2019-03-06T08:55:05.964Z,99469.13
2019-03-06T08:57:54.645Z,99461.13
2019-03-06T09:00:36.309Z,99463.09
2019-03-06T09:03:32.315Z,99453.67
2019-03-06T09:06:15.988Z,99460.91
2019-03-06T09:09:19.077Z,99457.33
2019-03-06T09:12:06.029Z,99452.23
2019-03-06T09:14:49.213Z,99451.35
2019-03-06T09:17:35.540Z,99431.36
2019-03-06T09:20:36.015Z,99425.84
2019-03-06T09:23:23.238Z,99415.20
2019-03-06T09:26:04.162Z,99424.80
2019-03-06T09:28:41.937Z,99413.68
2019-03-06T09:31:28.071Z,99402.47
2019-03-06T09:34:24.798Z,99405.70
2019-03-06T09:37:17.049Z,99404.81
2019-03-06T09:40:03.570Z,99396.39
2019-03-06T09:42:44.744Z,99396.83
2019-03-06T09:45:21.976Z,99376.08
2019-03-06T09:48:18.875Z,99383.84
2019-03-06T09:51:06.769Z,99376.95
2019-03-06T09:54:13.521Z,99373.52
2019-03-06T09:57:20.140Z,99365.67
2019-03-06T10:00:06.958Z,99360.80
2019-03-06T10:02:51.537Z,99352.09
2019-03-06T10:05:46.086Z,99344.70
2019-03-06T10:08:39.983Z,99336.81
2019-03-06T10:11:26.207Z,99320.39
2019-03-06T10:14:06.929Z,99324.36
2019-03-06T10:16:48.998Z,99322.58
2019-03-06T10:19:23.556Z,99328.24
2019-03-06T10:21:52.720Z,99323.23
2019-03-06T10:24:21.625Z,99315.75
2019-03-06T10:26:50.436Z,99328.57
2019-03-06T10:29:19.684Z,99312.53
2019-03-06T10:31:49.321Z,99308.25
2019-03-06T10:34:18.238Z,99293.61
2019-03-06T10:36:47.127Z,99282.61
2019-03-06T10:39:16.723Z,99279.94
2019-03-06T10:41:45.613Z,99271.86
2019-03-06T10:44:14.881Z,99274.17
2019-03-06T10:46:44.437Z,99266.48
2019-03-06T10:49:14.209Z,99256.31
2019-03-06T10:51:42.988Z,99258.12
2019-03-06T10:54:14.984Z,99251.04
2019-03-06T10:56:44.260Z,99251.02
2019-03-06T10:59:14.755Z,99247.24
2019-03-06T11:01:44.339Z,99255.10
2019-03-06T11:04:31.619Z,99243.86
2019-03-06T11:07:01.237Z,99235.75
2019-03-06T11:09:30.696Z,99227.74
2019-03-06T11:11:59.988Z,99225.09
2019-03-06T11:14:29.402Z,99223.77
2019-03-06T11:16:58.263Z,99215.41
2019-03-06T11:19:27.210Z,99201.00
2019-03-06T11:21:56.697Z,99196.14
2019-03-06T11:24:25.971Z,99190.07
2019-03-06T11:26:55.218Z,99181.12
2019-03-06T11:29:24.273Z,99179.12
2019-03-06T11:31:53.197Z,99162.03
2019-03-06T11:34:22.459Z,99163.66
2019-03-06T11:36:51.995Z,99165.50
2019-03-06T11:39:21.625Z,99166.24
2019-03-06T11:41:52.617Z,99156.70
2019-03-06T11:44:21.562Z,99157.81
2019-03-06T11:46:50.813Z,99158.61
2019-03-06T11:49:20.255Z,99143.70
2019-03-06T11:51:49.302Z,99142.80
2019-03-06T11:54:18.217Z,99129.31
2019-03-06T11:56:47.358Z,99118.13
2019-03-06T11:59:16.481Z,99122.34
2019-03-06T12:01:48.221Z,99113.75
2019-03-06T12:04:16.605Z,99114.12
2019-03-06T12:06:46.528Z,99103.09
2019-03-06T12:09:27.393Z,99108.23
2019-03-06T12:11:56.633Z,99099.47
2019-03-06T12:14:25.660Z,99079.49
2019-03-06T12:16:54.975Z,99087.42
2019-03-06T12:19:23.918Z,99086.72
2019-03-06T12:21:52.895Z,99075.34
2019-03-06T12:24:21.775Z,99071.92
2019-03-06T12:26:50.968Z,99065.47
2019-03-06T12:29:19.972Z,99070.17
2019-03-06T12:31:49.865Z,99064.98
2019-03-06T12:34:19.001Z,99063.86
2019-03-06T12:36:47.889Z,99063.75
2019-03-06T12:39:16.755Z,99067.38
2019-03-06T12:41:45.609Z,99070.86
2019-03-06T12:44:14.675Z,99061.59
2019-03-06T12:46:46.051Z,99042.57
2019-03-06T12:49:16.765Z,99047.88
2019-03-06T12:51:54.058Z,99040.36
2019-03-06T12:54:16.535Z,99029.59
2019-03-06T12:56:45.470Z,99023.04
2019-03-06T12:59:14.373Z,99022.59
2019-03-06T13:01:43.589Z,99031.88
2019-03-06T13:04:12.434Z,99011.41
2019-03-06T13:06:41.371Z,98999.34
2019-03-06T13:09:17.689Z,98988.57
2019-03-06T13:11:46.575Z,98990.44
2019-03-06T13:14:15.727Z,98989.58
2019-03-06T13:16:44.858Z,98985.83
2019-03-06T13:19:13.793Z,98976.23
2019-03-06T13:21:42.660Z,98972.84
2019-03-06T13:24:11.932Z,98967.17
2019-03-06T13:26:40.834Z,98958.48
2019-03-06T13:29:09.785Z,98949.65
2019-03-06T13:31:38.668Z,98948.80
2019-03-06T13:34:19.424Z,98947.45
2019-03-06T13:36:48.225Z,98945.54
2019-03-06T13:39:17.258Z,98933.84
2019-03-06T13:41:46.143Z,98922.62
2019-03-06T13:44:14.917Z,98917.33
2019-03-06T13:46:44.161Z,98916.48
2019-03-06T13:49:13.126Z,98940.59
2019-03-06T13:51:42.287Z,98927.27
2019-03-06T13:54:11.069Z,98922.27
2019-03-06T13:56:39.961Z,98920.34
2019-03-06T13:59:09.064Z,98924.72
2019-03-06T14:01:37.912Z,98916.88
2019-03-06T14:04:06.847Z,98901.27
2019-03-06T14:06:35.714Z,98890.78
2019-03-06T14:09:06.438Z,98898.88
2019-03-06T14:11:36.287Z,98884.96
2019-03-06T14:14:05.977Z,98878.58
2019-03-06T14:16:34.864Z,98879.87
2019-03-06T14:19:03.787Z,98873.11
2019-03-06T14:21:32.735Z,98874.39
2019-03-06T14:24:01.660Z,98866.88
2019-03-06T14:26:30.545Z,98865.70
2019-03-06T14:28:59.424Z,98862.47
2019-03-06T14:31:28.406Z,98862.59
2019-03-06T14:33:57.335Z,98870.80
2019-03-06T14:36:26.598Z,98871.09
2019-03-06T14:38:55.519Z,98866.81
2019-03-06T14:41:24.684Z,98858.86
2019-03-06T14:43:53.616Z,98859.38
2019-03-06T14:46:22.560Z,98850.13
2019-03-06T14:48:51.519Z,98846.45
2019-03-06T14:51:20.403Z,98843.07
2019-03-06T14:53:49.288Z,98840.92
2019-03-06T14:56:18.138Z,98834.63
2019-03-06T14:58:47.100Z,98831.58
2019-03-06T15:01:15.882Z,98825.25
2019-03-06T15:03:44.682Z,98805.06
2019-03-06T15:06:13.465Z,98814.23
2019-03-06T15:08:42.707Z,98811.77
2019-03-06T15:11:11.550Z,98796.95
2019-03-06T15:13:40.806Z,98798.44
2019-03-06T15:16:09.689Z,98793.16
2019-03-06T15:18:38.533Z,98785.03
2019-03-06T15:21:07.486Z,98791.69
2019-03-06T15:23:36.624Z,98789.77
2019-03-06T15:26:05.621Z,98779.37
2019-03-06T15:28:34.556Z,98782.78
2019-03-06T15:31:03.868Z,98781.95
2019-03-06T15:33:32.798Z,98793.22
2019-03-06T15:36:01.660Z,98791.17
2019-03-06T15:38:30.598Z,98779.03
2019-03-06T15:40:59.527Z,98779.27
2019-03-06T15:43:28.419Z,98769.43
2019-03-06T15:45:57.280Z,98769.47
2019-03-06T15:48:26.178Z,98755.56
2019-03-06T15:50:55.085Z,98732.89
2019-03-06T15:53:24.844Z,98739.86
2019-03-06T15:55:55.453Z,98738.80
2019-03-06T15:58:24.252Z,98743.85
2019-03-06T16:00:53.176Z,98741.91
2019-03-06T16:03:21.981Z,98738.20
2019-03-06T16:05:50.921Z,98735.83
2019-03-06T16:08:19.788Z,98733.42
2019-03-06T16:10:48.892Z,98743.28
2019-03-06T16:13:17.791Z,98743.10
2019-03-06T16:15:46.712Z,98739.64
2019-03-06T16:18:15.559Z,98750.37
2019-03-06T16:20:44.530Z,98753.08
2019-03-06T16:23:14.718Z,98756.07
2019-03-06T16:25:43.775Z,98749.65
2019-03-06T16:28:12.982Z,98748.08
2019-03-06T16:30:42.405Z,98750.48
2019-03-06T16:33:11.648Z,98750.23
2019-03-06T16:35:40.552Z,98754.59
2019-03-06T16:38:09.528Z,98761.02
2019-03-06T16:40:38.709Z,98754.35
2019-03-06T16:43:07.998Z,98757.00
2019-03-06T16:45:39.582Z,98757.27
2019-03-06T16:48:08.620Z,98752.43
2019-03-06T16:50:38.250Z,98755.88
2019-03-06T16:53:07.570Z,98744.91
2019-03-06T16:55:36.518Z,98751.69
2019-03-06T16:58:05.569Z,98747.28
2019-03-06T17:00:34.527Z,98747.66
2019-03-06T17:03:03.862Z,98754.86
2019-03-06T17:05:33.217Z,98748.31
2019-03-06T17:08:02.449Z,98759.80
2019-03-06T17:10:31.431Z,98748.15
2019-03-06T17:13:00.433Z,98752.72
2019-03-06T17:15:29.905Z,98754.05
2019-03-06T17:17:58.822Z,98752.47
2019-03-06T17:20:28.460Z,98742.89
2019-03-06T17:22:57.526Z,98735.43
2019-03-06T17:25:28.370Z,98720.00
2019-03-06T17:27:57.528Z,98722.66
2019-03-06T17:30:27.223Z,98726.67
2019-03-06T17:33:02.299Z,98723.44
2019-03-06T17:35:31.982Z,98725.85
2019-03-06T17:38:02.286Z,98717.34
2019-03-06T17:40:31.703Z,98713.88
2019-03-06T17:43:00.948Z,98711.75
2019-03-06T17:45:30.533Z,98709.38
2019-03-06T17:47:59.727Z,98711.49
2019-03-06T17:50:28.630Z,98707.49
2019-03-06T17:52:58.182Z,98700.56
2019-03-06T17:55:27.161Z,98701.64
2019-03-06T17:57:56.769Z,98698.16
2019-03-06T18:00:43.713Z,98697.10
2019-03-06T18:03:15.345Z,98697.34
2019-03-06T18:05:44.275Z,98689.09
2019-03-06T18:08:13.528Z,98685.91
2019-03-06T18:10:42.379Z,98678.22
2019-03-06T18:13:11.715Z,98681.14
2019-03-06T18:15:41.195Z,98675.55
2019-03-06T18:18:10.403Z,98676.06
2019-03-06T18:20:39.251Z,98675.05
2019-03-06T18:23:08.119Z,98669.99
2019-03-06T18:25:37.281Z,98669.98
2019-03-06T18:28:06.541Z,98664.12
2019-03-06T18:30:35.422Z,98652.19
2019-03-06T18:33:05.289Z,98660.45
2019-03-06T18:35:34.423Z,98649.80
2019-03-06T18:38:03.299Z,98654.86
2019-03-06T18:40:32.232Z,98649.80
2019-03-06T18:43:01.510Z,98645.81
2019-03-06T18:45:30.355Z,98642.09
2019-03-06T18:47:59.220Z,98639.72
2019-03-06T18:50:28.080Z,98636.78
2019-03-06T18:52:59.161Z,98643.70
2019-03-06T18:55:28.176Z,98647.41
2019-03-06T18:57:57.285Z,98637.02
2019-03-06T19:00:26.286Z,98634.66
2019-03-06T19:02:55.211Z,98628.80
2019-03-06T19:05:24.143Z,98623.21
2019-03-06T19:07:53.504Z,98628.26
2019-03-06T19:10:22.772Z,98616.83
2019-03-06T19:12:52.056Z,98627.73
2019-03-06T19:15:21.160Z,98628.00
2019-03-06T19:17:50.137Z,98621.09
2019-03-06T19:20:19.732Z,98619.77
2019-03-06T19:22:49.002Z,98621.91
2019-03-06T19:25:18.600Z,98613.11
2019-03-06T19:27:47.866Z,98613.66
2019-03-06T19:30:19.462Z,98612.81
2019-03-06T19:32:49.078Z,98607.52
2019-03-06T19:35:18.843Z,98605.67
2019-03-06T19:37:47.754Z,98606.73
2019-03-06T19:40:17.575Z,98608.60
2019-03-06T19:42:46.882Z,98608.60
2019-03-06T19:45:17.820Z,98604.08
2019-03-06T19:47:47.320Z,98603.80
2019-03-06T19:50:19.187Z,98605.94
2019-03-06T19:52:48.232Z,98598.77
2019-03-06T19:55:18.994Z,98599.03
2019-03-06T19:58:01.872Z,98591.60
2019-03-06T20:00:31.610Z,98591.06
2019-03-06T20:03:01.238Z,98578.84
2019-03-06T20:05:34.536Z,98576.44
2019-03-06T20:08:03.795Z,98571.68
2019-03-06T20:10:33.079Z,98566.89
2019-03-06T20:13:02.424Z,98564.51
2019-03-06T20:15:31.556Z,98565.00
2019-03-06T20:18:01.264Z,98566.85
2019-03-06T20:20:30.472Z,98562.31
2019-03-06T20:22:59.615Z,98563.88
2019-03-06T20:25:28.882Z,98555.11
2019-03-06T20:27:58.460Z,98556.17
2019-03-06T20:30:28.092Z,98550.86
2019-03-06T20:32:58.205Z,98552.42
2019-03-06T20:35:28.228Z,98547.92
2019-03-06T20:37:58.789Z,98549.26
2019-03-06T20:40:28.130Z,98549.80
2019-03-06T20:42:58.163Z,98544.44
2019-03-06T20:45:28.318Z,98542.81
2019-03-06T20:47:57.493Z,98540.17
2019-03-06T20:50:26.646Z,98533.52
2019-03-06T20:52:55.917Z,98529.86
2019-03-06T20:55:25.093Z,98538.07
2019-03-06T20:57:54.221Z,98538.93
2019-03-06T21:00:24.633Z,98540.50
2019-03-06T21:02:55.366Z,98536.82
2019-03-06T21:05:25.366Z,98532.01
2019-03-06T21:07:55.273Z,98537.36
2019-03-06T21:10:25.080Z,98531.27
2019-03-06T21:12:55.094Z,98525.94
2019-03-06T21:15:24.826Z,98524.34
2019-03-06T21:17:53.979Z,98516.38
2019-03-06T21:20:23.402Z,98507.34
2019-03-06T21:22:53.644Z,98512.95
2019-03-06T21:25:23.561Z,98511.62
2019-03-06T21:27:53.881Z,98493.04
2019-03-06T21:30:28.964Z,98489.34
2019-03-06T21:32:59.049Z,98484.55
2019-03-06T21:35:28.697Z,98488.80
2019-03-06T21:37:58.831Z,98499.69
2019-03-06T21:40:28.664Z,98493.05
2019-03-06T21:43:00.307Z,98497.82
2019-03-06T21:45:30.176Z,98495.38
2019-03-06T21:48:00.401Z,98498.31
2019-03-06T21:50:29.509Z,98501.22
2019-03-06T21:52:59.700Z,98499.36
2019-03-06T21:55:30.020Z,98497.28
2019-03-06T21:57:59.259Z,98497.01
2019-03-06T22:00:28.935Z,98494.91
2019-03-06T22:02:58.159Z,98496.22
2019-03-06T22:05:27.770Z,98499.16
2019-03-06T22:07:57.492Z,98493.03
2019-03-06T22:10:26.842Z,98490.14
2019-03-06T22:12:56.460Z,98491.70
2019-03-06T22:15:25.634Z,98498.84
2019-03-06T22:17:54.760Z,98489.00
2019-03-06T22:20:25.712Z,98488.76
2019-03-06T22:22:55.810Z,98487.42
2019-03-06T22:25:24.923Z,98479.70
2019-03-06T22:27:53.746Z,98478.63
2019-03-06T22:30:23.226Z,98479.40
2019-03-06T22:32:52.557Z,98488.44
2019-03-06T22:35:21.969Z,98482.08
2019-03-06T22:37:51.289Z,98482.63
2019-03-06T22:40:20.366Z,98482.11
2019-03-06T22:42:50.121Z,98472.25
2019-03-06T22:45:19.518Z,98473.59
2019-03-06T22:47:48.499Z,98459.78
2019-03-06T22:50:17.934Z,98466.16
2019-03-06T22:52:46.720Z,98472.52
2019-03-06T22:55:16.808Z,98467.48
2019-03-06T22:57:47.054Z,98465.34
2019-03-06T23:00:43.339Z,98458.45
2019-03-06T23:03:13.224Z,98453.91
2019-03-06T23:05:42.927Z,98452.58
2019-03-06T23:08:13.676Z,98454.44
2019-03-06T23:10:43.593Z,98452.88
2019-03-06T23:13:13.411Z,98444.92
2019-03-06T23:15:42.844Z,98441.75
2019-03-06T23:18:12.247Z,98434.33
2019-03-06T23:20:42.125Z,98431.67
2019-03-06T23:23:11.839Z,98431.41
2019-03-06T23:25:41.017Z,98426.91
2019-03-06T23:28:10.220Z,98427.17
2019-03-06T23:30:39.842Z,98422.95
2019-03-06T23:33:09.455Z,98425.59
2019-03-06T23:35:39.038Z,98419.46
2019-03-06T23:38:07.890Z,98409.40
2019-03-06T23:40:37.421Z,98417.64
2019-03-06T23:43:06.890Z,98407.29
2019-03-06T23:45:36.145Z,98415.25
2019-03-06T23:48:04.929Z,98404.64
2019-03-06T23:50:34.199Z,98396.64
2019-03-06T23:53:07.500Z,98393.98
2019-03-06T23:55:35.938Z,98388.62
2019-03-06T23:58:05.531Z,98394.77
